sensor_id;sensor_type;location;lat;lon;timestamp;P1;durP1;ratioP1;P2;durP2;ratioP2
29120;SDS011;16191;49.548;8.658;2023-09-08T00:01:08;4.82;;;3.28;;
29120;SDS011;16191;49.548;8.658;2023-09-08T00:03:54;5.22;;;3.70;;
29120;SDS011;16191;49.548;8.658;2023-09-08T00:06:24;5.35;;;3.00;;
29120;SDS011;16191;49.548;8.658;2023-09-08T00:08:53;5.32;;;3.28;;
29120;SDS011;16191;49.548;8.658;2023-09-08T00:11:31;6.70;;;3.65;;
29120;SDS011;16191;49.548;8.658;2023-09-08T00:14:13;7.90;;;3.75;;
29120;SDS011;16191;49.548;8.658;2023-09-08T00:16:57;5.35;;;3.22;;
29120;SDS011;16191;49.548;8.658;2023-09-08T00:19:48;9.20;;;3.88;;
29120;SDS011;16191;49.548;8.658;2023-09-08T00:22:30;4.40;;;3.10;;
29120;SDS011;16191;49.548;8.658;2023-09-08T00:25:20;5.95;;;3.35;;
29120;SDS011;16191;49.548;8.658;2023-09-08T00:28:00;8.70;;;3.50;;
29120;SDS011;16191;49.548;8.658;2023-09-08T00:30:32;5.20;;;3.45;;
29120;SDS011;16191;49.548;8.658;2023-09-08T00:33:14;7.63;;;3.42;;
29120;SDS011;16191;49.548;8.658;2023-09-08T00:35:44;7.75;;;3.55;;
29120;SDS011;16191;49.548;8.658;2023-09-08T00:38:20;7.30;;;3.83;;
29120;SDS011;16191;49.548;8.658;2023-09-08T00:40:53;8.63;;;3.17;;
29120;SDS011;16191;49.548;8.658;2023-09-08T00:43:24;6.38;;;3.38;;
29120;SDS011;16191;49.548;8.658;2023-09-08T00:45:56;5.70;;;3.45;;
29120;SDS011;16191;49.548;8.658;2023-09-08T00:48:46;5.30;;;3.63;;
29120;SDS011;16191;49.548;8.658;2023-09-08T00:51:20;4.47;;;3.42;;
29120;SDS011;16191;49.548;8.658;2023-09-08T00:53:53;8.35;;;3.50;;
29120;SDS011;16191;49.548;8.658;2023-09-08T00:56:30;6.53;;;3.45;;
29120;SDS011;16191;49.548;8.658;2023-09-08T00:59:03;4.37;;;3.20;;
29120;SDS011;16191;49.548;8.658;2023-09-08T01:01:41;7.78;;;3.40;;
29120;SDS011;16191;49.548;8.658;2023-09-08T01:04:20;5.32;;;3.60;;
29120;SDS011;16191;49.548;8.658;2023-09-08T01:07:06;7.85;;;3.95;;
29120;SDS011;16191;49.548;8.658;2023-09-08T01:09:38;7.40;;;2.70;;
29120;SDS011;16191;49.548;8.658;2023-09-08T01:12:10;4.70;;;2.97;;
29120;SDS011;16191;49.548;8.658;2023-09-08T01:14:38;9.80;;;3.42;;
29120;SDS011;16191;49.548;8.658;2023-09-08T01:17:27;7.07;;;3.83;;
29120;SDS011;16191;49.548;8.658;2023-09-08T01:20:04;5.00;;;3.58;;
29120;SDS011;16191;49.548;8.658;2023-09-08T01:23:18;5.95;;;3.08;;
29120;SDS011;16191;49.548;8.658;2023-09-08T01:26:16;4.57;;;3.38;;
29120;SDS011;16191;49.548;8.658;2023-09-08T01:28:50;8.57;;;3.90;;
29120;SDS011;16191;49.548;8.658;2023-09-08T01:31:21;5.95;;;3.47;;
29120;SDS011;16191;49.548;8.658;2023-09-08T01:33:53;5.93;;;3.53;;
29120;SDS011;16191;49.548;8.658;2023-09-08T01:36:29;5.03;;;3.22;;
29120;SDS011;16191;49.548;8.658;2023-09-08T01:39:23;5.30;;;3.40;;
29120;SDS011;16191;49.548;8.658;2023-09-08T01:42:19;5.30;;;3.22;;
29120;SDS011;16191;49.548;8.658;2023-09-08T01:45:08;6.43;;;3.60;;
29120;SDS011;16191;49.548;8.658;2023-09-08T01:48:12;6.93;;;3.10;;
29120;SDS011;16191;49.548;8.658;2023-09-08T01:51:03;6.70;;;2.92;;
29120;SDS011;16191;49.548;8.658;2023-09-08T01:53:55;12.20;;;3.70;;
29120;SDS011;16191;49.548;8.658;2023-09-08T01:56:31;5.63;;;3.30;;
29120;SDS011;16191;49.548;8.658;2023-09-08T01:59:05;4.55;;;3.20;;
29120;SDS011;16191;49.548;8.658;2023-09-08T02:01:43;4.97;;;3.22;;
29120;SDS011;16191;49.548;8.658;2023-09-08T02:04:18;12.77;;;3.50;;
29120;SDS011;16191;49.548;8.658;2023-09-08T02:06:56;5.35;;;3.70;;
29120;SDS011;16191;49.548;8.658;2023-09-08T02:09:34;5.68;;;3.38;;
29120;SDS011;16191;49.548;8.658;2023-09-08T02:12:12;7.00;;;4.13;;
29120;SDS011;16191;49.548;8.658;2023-09-08T02:14:51;5.55;;;3.55;;
29120;SDS011;16191;49.548;8.658;2023-09-08T02:17:22;4.60;;;3.58;;
29120;SDS011;16191;49.548;8.658;2023-09-08T02:19:54;3.97;;;3.08;;
29120;SDS011;16191;49.548;8.658;2023-09-08T02:22:25;6.45;;;3.80;;
29120;SDS011;16191;49.548;8.658;2023-09-08T02:24:54;8.10;;;3.43;;
29120;SDS011;16191;49.548;8.658;2023-09-08T02:27:35;9.23;;;3.33;;
29120;SDS011;16191;49.548;8.658;2023-09-08T02:30:19;9.75;;;3.88;;
29120;SDS011;16191;49.548;8.658;2023-09-08T02:32:48;8.30;;;3.75;;
29120;SDS011;16191;49.548;8.658;2023-09-08T02:35:22;6.53;;;3.45;;
29120;SDS011;16191;49.548;8.658;2023-09-08T02:38:04;3.95;;;2.90;;
29120;SDS011;16191;49.548;8.658;2023-09-08T02:40:39;7.75;;;3.70;;
29120;SDS011;16191;49.548;8.658;2023-09-08T02:43:22;4.40;;;3.08;;
29120;SDS011;16191;49.548;8.658;2023-09-08T02:45:50;4.60;;;3.50;;
29120;SDS011;16191;49.548;8.658;2023-09-08T02:48:17;5.55;;;3.47;;
29120;SDS011;16191;49.548;8.658;2023-09-08T02:50:44;6.47;;;3.42;;
29120;SDS011;16191;49.548;8.658;2023-09-08T02:53:11;4.50;;;3.58;;
29120;SDS011;16191;49.548;8.658;2023-09-08T02:55:38;5.07;;;3.08;;
29120;SDS011;16191;49.548;8.658;2023-09-08T02:58:05;7.70;;;3.60;;
29120;SDS011;16191;49.548;8.658;2023-09-08T03:00:32;3.78;;;3.22;;
29120;SDS011;16191;49.548;8.658;2023-09-08T03:02:59;7.32;;;3.78;;
29120;SDS011;16191;49.548;8.658;2023-09-08T03:05:25;5.85;;;3.28;;
29120;SDS011;16191;49.548;8.658;2023-09-08T03:07:52;4.88;;;3.30;;
29120;SDS011;16191;49.548;8.658;2023-09-08T03:10:20;7.10;;;3.90;;
29120;SDS011;16191;49.548;8.658;2023-09-08T03:12:46;6.75;;;3.90;;
29120;SDS011;16191;49.548;8.658;2023-09-08T03:15:12;5.57;;;4.38;;
29120;SDS011;16191;49.548;8.658;2023-09-08T03:17:39;6.03;;;4.40;;
29120;SDS011;16191;49.548;8.658;2023-09-08T03:20:07;8.15;;;4.13;;
29120;SDS011;16191;49.548;8.658;2023-09-08T03:22:37;7.63;;;4.68;;
29120;SDS011;16191;49.548;8.658;2023-09-08T03:25:03;8.82;;;4.43;;
29120;SDS011;16191;49.548;8.658;2023-09-08T03:27:31;6.35;;;4.45;;
29120;SDS011;16191;49.548;8.658;2023-09-08T03:29:58;8.05;;;4.50;;
29120;SDS011;16191;49.548;8.658;2023-09-08T03:32:26;10.23;;;5.03;;
29120;SDS011;16191;49.548;8.658;2023-09-08T03:34:55;8.63;;;4.75;;
29120;SDS011;16191;49.548;8.658;2023-09-08T03:37:22;8.82;;;4.72;;
29120;SDS011;16191;49.548;8.658;2023-09-08T03:39:48;7.93;;;4.20;;
29120;SDS011;16191;49.548;8.658;2023-09-08T03:42:15;6.43;;;4.93;;
29120;SDS011;16191;49.548;8.658;2023-09-08T03:44:42;5.63;;;3.72;;
29120;SDS011;16191;49.548;8.658;2023-09-08T03:47:09;6.22;;;3.55;;
29120;SDS011;16191;49.548;8.658;2023-09-08T03:49:36;6.60;;;4.03;;
29120;SDS011;16191;49.548;8.658;2023-09-08T03:52:02;6.78;;;3.90;;
29120;SDS011;16191;49.548;8.658;2023-09-08T03:54:29;8.15;;;3.97;;
29120;SDS011;16191;49.548;8.658;2023-09-08T03:56:56;8.18;;;3.65;;
29120;SDS011;16191;49.548;8.658;2023-09-08T03:59:23;9.02;;;4.30;;
29120;SDS011;16191;49.548;8.658;2023-09-08T04:01:49;6.15;;;4.03;;
29120;SDS011;16191;49.548;8.658;2023-09-08T04:04:16;8.40;;;4.10;;
29120;SDS011;16191;49.548;8.658;2023-09-08T04:06:44;8.13;;;3.58;;
29120;SDS011;16191;49.548;8.658;2023-09-08T04:09:10;5.05;;;3.85;;
29120;SDS011;16191;49.548;8.658;2023-09-08T04:11:38;7.90;;;4.07;;
29120;SDS011;16191;49.548;8.658;2023-09-08T04:14:04;4.53;;;3.70;;
29120;SDS011;16191;49.548;8.658;2023-09-08T04:16:31;7.00;;;4.10;;
29120;SDS011;16191;49.548;8.658;2023-09-08T04:18:58;8.20;;;3.90;;
29120;SDS011;16191;49.548;8.658;2023-09-08T04:21:24;6.47;;;3.85;;
29120;SDS011;16191;49.548;8.658;2023-09-08T04:23:51;8.23;;;3.63;;
29120;SDS011;16191;49.548;8.658;2023-09-08T04:26:18;4.35;;;3.55;;
29120;SDS011;16191;49.548;8.658;2023-09-08T04:28:45;5.47;;;3.67;;
29120;SDS011;16191;49.548;8.658;2023-09-08T04:31:12;45.72;;;4.38;;
29120;SDS011;16191;49.548;8.658;2023-09-08T04:33:38;5.75;;;4.32;;
29120;SDS011;16191;49.548;8.658;2023-09-08T04:36:06;5.95;;;3.92;;
29120;SDS011;16191;49.548;8.658;2023-09-08T04:38:32;5.28;;;3.45;;
29120;SDS011;16191;49.548;8.658;2023-09-08T04:40:59;5.88;;;3.63;;
29120;SDS011;16191;49.548;8.658;2023-09-08T04:43:26;10.98;;;3.92;;
29120;SDS011;16191;49.548;8.658;2023-09-08T04:45:52;6.50;;;3.88;;
29120;SDS011;16191;49.548;8.658;2023-09-08T04:48:19;5.75;;;4.10;;
29120;SDS011;16191;49.548;8.658;2023-09-08T04:50:46;9.52;;;4.78;;
29120;SDS011;16191;49.548;8.658;2023-09-08T04:53:13;9.13;;;4.15;;
29120;SDS011;16191;49.548;8.658;2023-09-08T04:55:39;9.77;;;3.70;;
29120;SDS011;16191;49.548;8.658;2023-09-08T04:58:06;6.00;;;3.83;;
29120;SDS011;16191;49.548;8.658;2023-09-08T05:00:33;6.93;;;4.07;;
29120;SDS011;16191;49.548;8.658;2023-09-08T05:03:00;6.05;;;3.70;;
29120;SDS011;16191;49.548;8.658;2023-09-08T05:05:28;8.90;;;4.22;;
29120;SDS011;16191;49.548;8.658;2023-09-08T05:07:54;9.50;;;4.28;;
29120;SDS011;16191;49.548;8.658;2023-09-08T05:10:23;11.38;;;4.72;;
29120;SDS011;16191;49.548;8.658;2023-09-08T05:12:51;6.95;;;3.90;;
29120;SDS011;16191;49.548;8.658;2023-09-08T05:15:19;5.10;;;3.65;;
29120;SDS011;16191;49.548;8.658;2023-09-08T05:17:51;7.55;;;3.67;;
29120;SDS011;16191;49.548;8.658;2023-09-08T05:20:19;6.05;;;4.05;;
29120;SDS011;16191;49.548;8.658;2023-09-08T05:22:45;7.22;;;3.58;;
29120;SDS011;16191;49.548;8.658;2023-09-08T05:25:12;5.63;;;3.60;;
29120;SDS011;16191;49.548;8.658;2023-09-08T05:27:39;6.90;;;3.42;;
29120;SDS011;16191;49.548;8.658;2023-09-08T05:30:06;7.68;;;3.65;;
29120;SDS011;16191;49.548;8.658;2023-09-08T05:32:34;7.32;;;3.92;;
29120;SDS011;16191;49.548;8.658;2023-09-08T05:35:02;7.30;;;4.18;;
29120;SDS011;16191;49.548;8.658;2023-09-08T05:37:29;8.48;;;4.30;;
29120;SDS011;16191;49.548;8.658;2023-09-08T05:39:56;7.85;;;4.15;;
29120;SDS011;16191;49.548;8.658;2023-09-08T05:42:23;5.90;;;4.15;;
29120;SDS011;16191;49.548;8.658;2023-09-08T05:44:50;7.07;;;3.90;;
29120;SDS011;16191;49.548;8.658;2023-09-08T05:47:16;11.00;;;4.50;;
29120;SDS011;16191;49.548;8.658;2023-09-08T05:49:44;5.95;;;3.67;;
29120;SDS011;16191;49.548;8.658;2023-09-08T05:52:11;13.38;;;4.03;;
29120;SDS011;16191;49.548;8.658;2023-09-08T05:54:38;5.53;;;3.83;;
29120;SDS011;16191;49.548;8.658;2023-09-08T05:57:05;14.50;;;4.57;;
29120;SDS011;16191;49.548;8.658;2023-09-08T05:59:32;6.28;;;4.20;;
29120;SDS011;16191;49.548;8.658;2023-09-08T06:01:59;9.50;;;4.30;;
29120;SDS011;16191;49.548;8.658;2023-09-08T06:04:26;9.77;;;4.43;;
29120;SDS011;16191;49.548;8.658;2023-09-08T06:06:54;8.57;;;4.38;;
29120;SDS011;16191;49.548;8.658;2023-09-08T06:09:20;6.07;;;3.88;;
29120;SDS011;16191;49.548;8.658;2023-09-08T06:11:47;6.75;;;3.83;;
29120;SDS011;16191;49.548;8.658;2023-09-08T06:14:14;5.13;;;4.10;;
29120;SDS011;16191;49.548;8.658;2023-09-08T06:16:44;7.65;;;4.20;;
29120;SDS011;16191;49.548;8.658;2023-09-08T06:19:11;6.80;;;3.88;;
29120;SDS011;16191;49.548;8.658;2023-09-08T06:21:38;5.20;;;3.58;;
29120;SDS011;16191;49.548;8.658;2023-09-08T06:24:05;12.07;;;4.57;;
29120;SDS011;16191;49.548;8.658;2023-09-08T06:26:34;4.80;;;3.95;;
29120;SDS011;16191;49.548;8.658;2023-09-08T06:29:01;11.82;;;3.88;;
29120;SDS011;16191;49.548;8.658;2023-09-08T06:31:28;5.43;;;3.50;;
29120;SDS011;16191;49.548;8.658;2023-09-08T06:33:55;5.95;;;3.97;;
29120;SDS011;16191;49.548;8.658;2023-09-08T06:36:22;7.00;;;3.65;;
29120;SDS011;16191;49.548;8.658;2023-09-08T06:38:51;5.43;;;3.63;;
29120;SDS011;16191;49.548;8.658;2023-09-08T06:41:18;5.45;;;3.65;;
29120;SDS011;16191;49.548;8.658;2023-09-08T06:43:45;7.10;;;3.92;;
29120;SDS011;16191;49.548;8.658;2023-09-08T06:46:20;5.03;;;3.65;;
29120;SDS011;16191;49.548;8.658;2023-09-08T06:48:47;8.90;;;3.72;;
29120;SDS011;16191;49.548;8.658;2023-09-08T06:51:14;8.60;;;3.80;;
29120;SDS011;16191;49.548;8.658;2023-09-08T06:53:42;4.63;;;3.60;;
29120;SDS011;16191;49.548;8.658;2023-09-08T06:56:09;11.25;;;4.18;;
29120;SDS011;16191;49.548;8.658;2023-09-08T06:58:37;7.75;;;3.67;;
29120;SDS011;16191;49.548;8.658;2023-09-08T07:01:03;9.13;;;3.67;;
29120;SDS011;16191;49.548;8.658;2023-09-08T07:03:31;8.13;;;3.50;;
29120;SDS011;16191;49.548;8.658;2023-09-08T07:06:05;7.32;;;4.25;;
29120;SDS011;16191;49.548;8.658;2023-09-08T07:08:32;11.70;;;3.95;;
29120;SDS011;16191;49.548;8.658;2023-09-08T07:10:59;7.13;;;3.60;;
29120;SDS011;16191;49.548;8.658;2023-09-08T07:13:27;5.38;;;3.35;;
29120;SDS011;16191;49.548;8.658;2023-09-08T07:15:53;5.85;;;3.80;;
29120;SDS011;16191;49.548;8.658;2023-09-08T07:18:20;4.25;;;3.60;;
29120;SDS011;16191;49.548;8.658;2023-09-08T07:20:47;6.38;;;3.58;;
29120;SDS011;16191;49.548;8.658;2023-09-08T07:23:16;4.77;;;3.63;;
29120;SDS011;16191;49.548;8.658;2023-09-08T07:25:47;5.00;;;3.33;;
29120;SDS011;16191;49.548;8.658;2023-09-08T07:28:15;7.55;;;3.40;;
29120;SDS011;16191;49.548;8.658;2023-09-08T07:30:42;6.05;;;3.63;;
29120;SDS011;16191;49.548;8.658;2023-09-08T07:33:10;8.45;;;3.50;;
29120;SDS011;16191;49.548;8.658;2023-09-08T07:35:38;6.25;;;3.63;;
29120;SDS011;16191;49.548;8.658;2023-09-08T07:38:06;6.43;;;3.40;;
29120;SDS011;16191;49.548;8.658;2023-09-08T07:40:34;5.82;;;3.17;;
29120;SDS011;16191;49.548;8.658;2023-09-08T07:43:01;4.90;;;3.38;;
29120;SDS011;16191;49.548;8.658;2023-09-08T07:45:29;7.55;;;4.22;;
29120;SDS011;16191;49.548;8.658;2023-09-08T07:47:56;6.10;;;3.45;;
29120;SDS011;16191;49.548;8.658;2023-09-08T07:50:24;6.40;;;3.38;;
29120;SDS011;16191;49.548;8.658;2023-09-08T07:52:52;8.85;;;4.05;;
29120;SDS011;16191;49.548;8.658;2023-09-08T07:55:20;14.52;;;3.83;;
29120;SDS011;16191;49.548;8.658;2023-09-08T07:57:53;4.07;;;3.50;;
29120;SDS011;16191;49.548;8.658;2023-09-08T08:00:21;5.65;;;3.75;;
29120;SDS011;16191;49.548;8.658;2023-09-08T08:02:49;5.85;;;3.65;;
29120;SDS011;16191;49.548;8.658;2023-09-08T08:05:17;7.35;;;4.00;;
29120;SDS011;16191;49.548;8.658;2023-09-08T08:07:44;7.30;;;3.35;;
29120;SDS011;16191;49.548;8.658;2023-09-08T08:10:11;7.03;;;3.63;;
29120;SDS011;16191;49.548;8.658;2023-09-08T08:12:39;6.28;;;3.72;;
29120;SDS011;16191;49.548;8.658;2023-09-08T08:15:06;5.60;;;3.70;;
29120;SDS011;16191;49.548;8.658;2023-09-08T08:17:34;9.05;;;4.10;;
29120;SDS011;16191;49.548;8.658;2023-09-08T08:20:00;8.02;;;3.70;;
29120;SDS011;16191;49.548;8.658;2023-09-08T08:22:36;17.55;;;4.80;;
29120;SDS011;16191;49.548;8.658;2023-09-08T08:25:03;7.05;;;4.45;;
29120;SDS011;16191;49.548;8.658;2023-09-08T08:27:30;11.05;;;5.07;;
29120;SDS011;16191;49.548;8.658;2023-09-08T08:29:58;9.57;;;4.20;;
29120;SDS011;16191;49.548;8.658;2023-09-08T08:32:27;7.97;;;4.85;;
29120;SDS011;16191;49.548;8.658;2023-09-08T08:34:54;7.78;;;4.65;;
29120;SDS011;16191;49.548;8.658;2023-09-08T08:37:21;8.52;;;4.50;;
29120;SDS011;16191;49.548;8.658;2023-09-08T08:39:48;7.00;;;4.75;;
29120;SDS011;16191;49.548;8.658;2023-09-08T08:42:15;5.70;;;3.88;;
29120;SDS011;16191;49.548;8.658;2023-09-08T08:44:42;8.13;;;4.15;;
29120;SDS011;16191;49.548;8.658;2023-09-08T08:47:10;11.02;;;3.75;;
29120;SDS011;16191;49.548;8.658;2023-09-08T08:49:37;6.55;;;3.67;;
29120;SDS011;16191;49.548;8.658;2023-09-08T08:52:08;7.93;;;4.30;;
29120;SDS011;16191;49.548;8.658;2023-09-08T08:54:37;10.80;;;4.13;;
29120;SDS011;16191;49.548;8.658;2023-09-08T08:57:05;7.03;;;3.88;;
29120;SDS011;16191;49.548;8.658;2023-09-08T08:59:33;8.38;;;4.10;;
29120;SDS011;16191;49.548;8.658;2023-09-08T09:02:02;6.78;;;4.28;;
29120;SDS011;16191;49.548;8.658;2023-09-08T09:04:31;5.97;;;4.22;;
29120;SDS011;16191;49.548;8.658;2023-09-08T09:06:59;6.95;;;4.20;;
29120;SDS011;16191;49.548;8.658;2023-09-08T09:09:25;8.52;;;4.22;;
29120;SDS011;16191;49.548;8.658;2023-09-08T09:11:52;10.75;;;4.10;;
29120;SDS011;16191;49.548;8.658;2023-09-08T09:14:19;5.60;;;4.03;;
29120;SDS011;16191;49.548;8.658;2023-09-08T09:16:46;7.05;;;3.80;;
29120;SDS011;16191;49.548;8.658;2023-09-08T09:19:21;11.23;;;3.80;;
29120;SDS011;16191;49.548;8.658;2023-09-08T09:21:54;8.07;;;3.88;;
29120;SDS011;16191;49.548;8.658;2023-09-08T09:24:29;8.60;;;3.78;;
29120;SDS011;16191;49.548;8.658;2023-09-08T09:27:00;8.00;;;3.83;;
29120;SDS011;16191;49.548;8.658;2023-09-08T09:29:28;6.20;;;3.40;;
29120;SDS011;16191;49.548;8.658;2023-09-08T09:32:02;8.73;;;4.03;;
29120;SDS011;16191;49.548;8.658;2023-09-08T09:34:30;9.02;;;3.70;;
29120;SDS011;16191;49.548;8.658;2023-09-08T09:36:57;7.90;;;4.22;;
29120;SDS011;16191;49.548;8.658;2023-09-08T09:39:25;7.80;;;3.70;;
29120;SDS011;16191;49.548;8.658;2023-09-08T09:41:53;8.73;;;3.92;;
29120;SDS011;16191;49.548;8.658;2023-09-08T09:44:24;6.85;;;3.75;;
29120;SDS011;16191;49.548;8.658;2023-09-08T09:46:52;11.80;;;4.07;;
29120;SDS011;16191;49.548;8.658;2023-09-08T09:49:19;5.80;;;3.10;;
29120;SDS011;16191;49.548;8.658;2023-09-08T09:51:47;9.68;;;4.60;;
29120;SDS011;16191;49.548;8.658;2023-09-08T09:54:14;7.20;;;4.25;;
29120;SDS011;16191;49.548;8.658;2023-09-08T09:56:41;7.35;;;4.10;;
29120;SDS011;16191;49.548;8.658;2023-09-08T09:59:12;4.93;;;3.20;;
29120;SDS011;16191;49.548;8.658;2023-09-08T10:01:41;9.00;;;3.80;;
29120;SDS011;16191;49.548;8.658;2023-09-08T10:04:09;7.43;;;3.75;;
29120;SDS011;16191;49.548;8.658;2023-09-08T10:06:42;9.13;;;3.70;;
29120;SDS011;16191;49.548;8.658;2023-09-08T10:09:10;5.10;;;3.58;;
29120;SDS011;16191;49.548;8.658;2023-09-08T10:11:44;5.47;;;3.92;;
29120;SDS011;16191;49.548;8.658;2023-09-08T10:14:15;4.88;;;3.53;;
29120;SDS011;16191;49.548;8.658;2023-09-08T10:16:43;8.77;;;4.68;;
29120;SDS011;16191;49.548;8.658;2023-09-08T10:19:16;12.60;;;4.30;;
29120;SDS011;16191;49.548;8.658;2023-09-08T10:21:45;9.43;;;3.80;;
29120;SDS011;16191;49.548;8.658;2023-09-08T10:26:43;6.40;;;4.05;;
29120;SDS011;16191;49.548;8.658;2023-09-08T10:29:11;6.68;;;3.67;;
29120;SDS011;16191;49.548;8.658;2023-09-08T10:31:38;8.20;;;3.90;;
29120;SDS011;16191;49.548;8.658;2023-09-08T10:34:06;5.97;;;3.67;;
29120;SDS011;16191;49.548;8.658;2023-09-08T10:36:34;5.90;;;3.40;;
29120;SDS011;16191;49.548;8.658;2023-09-08T10:45:00;9.02;;;3.85;;
29120;SDS011;16191;49.548;8.658;2023-09-08T10:47:39;10.70;;;3.72;;
29120;SDS011;16191;49.548;8.658;2023-09-08T10:50:26;9.07;;;3.65;;
29120;SDS011;16191;49.548;8.658;2023-09-08T10:55:56;5.82;;;3.13;;
29120;SDS011;16191;49.548;8.658;2023-09-08T10:58:43;9.18;;;4.07;;
29120;SDS011;16191;49.548;8.658;2023-09-08T11:01:15;7.20;;;3.53;;
29120;SDS011;16191;49.548;8.658;2023-09-08T11:03:45;4.70;;;3.67;;
29120;SDS011;16191;49.548;8.658;2023-09-08T11:06:17;6.32;;;3.42;;
29120;SDS011;16191;49.548;8.658;2023-09-08T11:08:45;5.90;;;3.35;;
29120;SDS011;16191;49.548;8.658;2023-09-08T11:11:14;6.57;;;3.65;;
29120;SDS011;16191;49.548;8.658;2023-09-08T11:13:42;7.28;;;4.18;;
29120;SDS011;16191;49.548;8.658;2023-09-08T11:18:39;5.22;;;3.60;;
29120;SDS011;16191;49.548;8.658;2023-09-08T11:21:08;11.70;;;3.60;;
29120;SDS011;16191;49.548;8.658;2023-09-08T11:23:36;8.05;;;4.10;;
29120;SDS011;16191;49.548;8.658;2023-09-08T11:26:04;8.52;;;3.80;;
29120;SDS011;16191;49.548;8.658;2023-09-08T11:28:32;6.60;;;3.58;;
29120;SDS011;16191;49.548;8.658;2023-09-08T11:31:00;7.13;;;3.50;;
29120;SDS011;16191;49.548;8.658;2023-09-08T11:33:32;12.43;;;3.78;;
29120;SDS011;16191;49.548;8.658;2023-09-08T11:36:00;9.40;;;3.83;;
29120;SDS011;16191;49.548;8.658;2023-09-08T11:38:27;8.40;;;3.50;;
29120;SDS011;16191;49.548;8.658;2023-09-08T11:40:56;9.15;;;3.67;;
29120;SDS011;16191;49.548;8.658;2023-09-08T11:43:27;6.10;;;3.92;;
29120;SDS011;16191;49.548;8.658;2023-09-08T11:48:22;5.78;;;3.78;;
29120;SDS011;16191;49.548;8.658;2023-09-08T11:50:54;4.47;;;2.97;;
29120;SDS011;16191;49.548;8.658;2023-09-08T11:53:21;9.35;;;3.47;;
29120;SDS011;16191;49.548;8.658;2023-09-08T11:55:49;6.18;;;3.50;;
29120;SDS011;16191;49.548;8.658;2023-09-08T11:58:16;5.88;;;3.28;;
29120;SDS011;16191;49.548;8.658;2023-09-08T12:00:44;4.90;;;3.40;;
29120;SDS011;16191;49.548;8.658;2023-09-08T12:03:12;7.63;;;3.33;;
29120;SDS011;16191;49.548;8.658;2023-09-08T12:05:41;5.45;;;3.47;;
29120;SDS011;16191;49.548;8.658;2023-09-08T12:08:09;6.23;;;3.50;;
29120;SDS011;16191;49.548;8.658;2023-09-08T12:10:42;6.05;;;3.53;;
29120;SDS011;16191;49.548;8.658;2023-09-08T12:13:09;5.28;;;3.38;;
29120;SDS011;16191;49.548;8.658;2023-09-08T12:15:37;5.70;;;3.53;;
29120;SDS011;16191;49.548;8.658;2023-09-08T12:18:09;5.10;;;3.45;;
29120;SDS011;16191;49.548;8.658;2023-09-08T12:20:37;8.43;;;3.35;;
29120;SDS011;16191;49.548;8.658;2023-09-08T12:23:27;4.70;;;3.10;;
29120;SDS011;16191;49.548;8.658;2023-09-08T12:25:52;7.25;;;3.33;;
29120;SDS011;16191;49.548;8.658;2023-09-08T12:28:20;8.60;;;3.25;;
29120;SDS011;16191;49.548;8.658;2023-09-08T12:30:50;5.72;;;2.97;;
29120;SDS011;16191;49.548;8.658;2023-09-08T12:35:46;8.30;;;2.80;;
29120;SDS011;16191;49.548;8.658;2023-09-08T12:38:14;5.28;;;3.20;;
29120;SDS011;16191;49.548;8.658;2023-09-08T12:40:41;4.45;;;2.90;;
29120;SDS011;16191;49.548;8.658;2023-09-08T12:43:07;6.40;;;3.40;;
29120;SDS011;16191;49.548;8.658;2023-09-08T12:45:52;6.47;;;3.40;;
29120;SDS011;16191;49.548;8.658;2023-09-08T12:48:18;8.18;;;2.70;;
29120;SDS011;16191;49.548;8.658;2023-09-08T12:50:46;5.70;;;3.42;;
29120;SDS011;16191;49.548;8.658;2023-09-08T12:53:14;10.73;;;3.05;;
29120;SDS011;16191;49.548;8.658;2023-09-08T12:55:43;5.60;;;3.20;;
29120;SDS011;16191;49.548;8.658;2023-09-08T12:58:09;4.95;;;3.00;;
29120;SDS011;16191;49.548;8.658;2023-09-08T13:00:36;9.15;;;3.38;;
29120;SDS011;16191;49.548;8.658;2023-09-08T13:03:03;8.40;;;3.25;;
29120;SDS011;16191;49.548;8.658;2023-09-08T13:05:29;4.35;;;3.08;;
29120;SDS011;16191;49.548;8.658;2023-09-08T13:07:58;7.55;;;2.67;;
29120;SDS011;16191;49.548;8.658;2023-09-08T13:10:25;9.32;;;3.35;;
29120;SDS011;16191;49.548;8.658;2023-09-08T13:12:51;6.10;;;3.00;;
29120;SDS011;16191;49.548;8.658;2023-09-08T13:15:18;4.32;;;2.97;;
29120;SDS011;16191;49.548;8.658;2023-09-08T13:17:44;5.85;;;2.75;;
29120;SDS011;16191;49.548;8.658;2023-09-08T13:20:11;6.20;;;3.30;;
29120;SDS011;16191;49.548;8.658;2023-09-08T13:22:38;8.90;;;3.08;;
29120;SDS011;16191;49.548;8.658;2023-09-08T13:25:05;5.10;;;3.15;;
29120;SDS011;16191;49.548;8.658;2023-09-08T13:27:32;7.63;;;3.50;;
29120;SDS011;16191;49.548;8.658;2023-09-08T13:30:08;5.80;;;3.38;;
29120;SDS011;16191;49.548;8.658;2023-09-08T13:32:39;5.85;;;3.10;;
29120;SDS011;16191;49.548;8.658;2023-09-08T13:35:06;5.20;;;2.90;;
29120;SDS011;16191;49.548;8.658;2023-09-08T13:37:33;9.25;;;2.90;;
29120;SDS011;16191;49.548;8.658;2023-09-08T13:40:01;7.18;;;3.00;;
29120;SDS011;16191;49.548;8.658;2023-09-08T13:42:30;6.25;;;2.80;;
29120;SDS011;16191;49.548;8.658;2023-09-08T13:44:57;6.40;;;2.83;;
29120;SDS011;16191;49.548;8.658;2023-09-08T13:47:24;5.13;;;3.33;;
29120;SDS011;16191;49.548;8.658;2023-09-08T13:49:51;3.72;;;2.80;;
29120;SDS011;16191;49.548;8.658;2023-09-08T13:52:20;5.50;;;2.80;;
29120;SDS011;16191;49.548;8.658;2023-09-08T13:54:48;5.07;;;2.85;;
29120;SDS011;16191;49.548;8.658;2023-09-08T13:57:35;8.43;;;3.05;;
29120;SDS011;16191;49.548;8.658;2023-09-08T14:00:06;4.68;;;2.80;;
29120;SDS011;16191;49.548;8.658;2023-09-08T14:02:35;7.30;;;3.10;;
29120;SDS011;16191;49.548;8.658;2023-09-08T14:05:09;6.85;;;3.00;;
29120;SDS011;16191;49.548;8.658;2023-09-08T14:07:37;4.05;;;2.90;;
29120;SDS011;16191;49.548;8.658;2023-09-08T14:10:12;5.70;;;2.58;;
29120;SDS011;16191;49.548;8.658;2023-09-08T14:12:54;3.55;;;2.70;;
29120;SDS011;16191;49.548;8.658;2023-09-08T14:15:21;8.85;;;3.30;;
29120;SDS011;16191;49.548;8.658;2023-09-08T14:17:47;9.23;;;2.85;;
29120;SDS011;16191;49.548;8.658;2023-09-08T14:20:14;9.45;;;2.80;;
29120;SDS011;16191;49.548;8.658;2023-09-08T14:22:41;3.05;;;2.75;;
29120;SDS011;16191;49.548;8.658;2023-09-08T14:25:08;4.28;;;2.78;;
29120;SDS011;16191;49.548;8.658;2023-09-08T14:27:35;6.05;;;2.80;;
29120;SDS011;16191;49.548;8.658;2023-09-08T14:30:04;6.10;;;3.30;;
29120;SDS011;16191;49.548;8.658;2023-09-08T14:32:31;5.80;;;3.05;;
29120;SDS011;16191;49.548;8.658;2023-09-08T14:34:57;6.80;;;3.17;;
29120;SDS011;16191;49.548;8.658;2023-09-08T14:37:24;6.28;;;2.65;;
29120;SDS011;16191;49.548;8.658;2023-09-08T14:39:51;7.38;;;3.17;;
29120;SDS011;16191;49.548;8.658;2023-09-08T14:42:17;11.23;;;2.72;;
29120;SDS011;16191;49.548;8.658;2023-09-08T14:44:44;11.05;;;2.92;;
29120;SDS011;16191;49.548;8.658;2023-09-08T14:47:10;10.63;;;3.30;;
29120;SDS011;16191;49.548;8.658;2023-09-08T14:49:37;8.27;;;2.97;;
29120;SDS011;16191;49.548;8.658;2023-09-08T14:52:03;5.32;;;2.55;;
29120;SDS011;16191;49.548;8.658;2023-09-08T14:54:30;3.70;;;2.63;;
29120;SDS011;16191;49.548;8.658;2023-09-08T14:56:57;4.47;;;2.60;;
29120;SDS011;16191;49.548;8.658;2023-09-08T14:59:23;6.03;;;2.92;;
29120;SDS011;16191;49.548;8.658;2023-09-08T15:01:50;6.28;;;2.50;;
29120;SDS011;16191;49.548;8.658;2023-09-08T15:04:18;4.85;;;2.60;;
29120;SDS011;16191;49.548;8.658;2023-09-08T15:06:44;6.90;;;2.80;;
29120;SDS011;16191;49.548;8.658;2023-09-08T15:09:11;3.05;;;2.50;;
29120;SDS011;16191;49.548;8.658;2023-09-08T15:11:38;4.90;;;2.42;;
29120;SDS011;16191;49.548;8.658;2023-09-08T15:14:05;7.20;;;2.50;;
29120;SDS011;16191;49.548;8.658;2023-09-08T15:16:31;4.40;;;2.28;;
29120;SDS011;16191;49.548;8.658;2023-09-08T15:18:58;5.32;;;2.60;;
29120;SDS011;16191;49.548;8.658;2023-09-08T15:21:25;6.00;;;2.92;;